Time,TemperatureF,DewpointF,PressureIn,WindDirection,WindDirectionDegrees,WindSpeedMPH,WindSpeedGustMPH,Humidity,HourlyPrecipIn,Conditions,Clouds,dailyrainin,SoftwareType,DateUTC
2013-09-10 00:01:00,67.8,65.0,29.04,South,180,8.0,14.0,93,0.00,,,0.00,Rainwise IP-100,2013-09-10 04:01:00,
2013-09-10 00:02:00,67.9,66.0,29.04,South,180,8.0,14.0,93,0.00,,,0.00,Rainwise IP-100,2013-09-10 04:02:00,
2013-09-10 00:03:00,67.9,66.0,29.04,South,180,7.0,14.0,93,0.00,,,0.00,Rainwise IP-100,2013-09-10 04:03:00,
2013-09-10 00:04:00,67.9,66.0,29.04,South,180,6.0,14.0,93,0.00,,,0.00,Rainwise IP-100,2013-09-10 04:04:00,
2013-09-10 00:07:00,67.8,65.0,29.04,South,180,4.0,11.0,93,0.00,,,0.00,Rainwise IP-100,2013-09-10 04:07:00,
2013-09-10 00:12:00,67.8,66.0,29.04,SSW,202,7.0,9.0,94,0.00,,,0.00,Rainwise IP-100,2013-09-10 04:12:00,
2013-09-10 00:17:00,67.8,66.0,29.04,South,180,4.0,10.0,94,0.00,,,0.00,Rainwise IP-100,2013-09-10 04:17:00,
2013-09-10 00:23:00,67.8,66.0,29.04,South,180,7.0,10.0,94,0.00,,,0.00,Rainwise IP-100,2013-09-10 04:23:00,
2013-09-10 00:28:00,67.9,66.0,29.04,SSW,202,4.0,10.0,94,0.00,,,0.00,Rainwise IP-100,2013-09-10 04:28:00,
2013-09-10 00:33:00,67.9,66.0,29.04,SSW,202,6.0,11.0,94,0.00,,,0.00,Rainwise IP-100,2013-09-10 04:33:00,
2013-09-10 00:38:00,67.9,66.0,29.05,South,180,4.0,9.0,94,0.00,,,0.00,Rainwise IP-100,2013-09-10 04:38:00,
2013-09-10 00:43:00,67.9,66.0,29.05,SSW,202,4.0,12.0,94,0.00,,,0.00,Rainwise IP-100,2013-09-10 04:43:00,
2013-09-10 00:48:00,68.0,66.0,29.05,South,180,5.0,11.0,94,0.00,,,0.00,Rainwise IP-100,2013-09-10 04:48:00,
2013-09-10 00:53:00,68.1,66.0,29.04,South,180,4.0,9.0,94,0.00,,,0.00,Rainwise IP-100,2013-09-10 04:53:00,
2013-09-10 00:58:00,67.9,66.0,29.04,SSW,202,5.0,8.0,94,0.00,,,0.00,Rainwise IP-100,2013-09-10 04:58:00,
2013-09-10 01:03:00,68.0,66.0,29.04,South,180,6.0,10.0,94,0.00,,,0.00,Rainwise IP-100,2013-09-10 05:03:00,
2013-09-10 01:08:00,67.9,66.0,29.04,SSE,157,1.0,9.0,94,0.00,,,0.00,Rainwise IP-100,2013-09-10 05:08:00,
2013-09-10 01:13:00,67.9,66.0,29.04,South,180,2.0,7.0,94,0.00,,,0.00,Rainwise IP-100,2013-09-10 05:13:00,
2013-09-10 01:18:00,67.8,66.0,29.04,SW,225,7.0,8.0,94,0.00,,,0.00,Rainwise IP-100,2013-09-10 05:18:00,
2013-09-10 01:24:00,67.7,66.0,29.04,SSE,157,2.0,7.0,95,0.00,,,0.00,Rainwise IP-100,2013-09-10 05:24:00,
2013-09-10 01:29:00,67.7,66.0,29.04,South,180,4.0,6.0,95,0.00,,,0.00,Rainwise IP-100,2013-09-10 05:29:00,
2013-09-10 01:34:00,67.7,66.0,29.04,SSE,157,2.0,5.0,95,0.00,,,0.00,Rainwise IP-100,2013-09-10 05:34:00,
2013-09-10 01:39:00,67.7,66.0,29.04,SE,135,0.0,2.0,95,0.00,,,0.00,Rainwise IP-100,2013-09-10 05:39:00,
2013-09-10 01:44:00,67.6,66.0,29.04,SE,135,0.0,2.0,95,0.00,,,0.00,Rainwise IP-100,2013-09-10 05:44:00,
2013-09-10 01:49:00,67.6,66.0,29.05,SE,135,0.0,0.0,95,0.00,,,0.00,Rainwise IP-100,2013-09-10 05:49:00,
2013-09-10 01:54:00,67.5,66.0,29.05,South,180,1.0,2.0,95,0.00,,,0.00,Rainwise IP-100,2013-09-10 05:54:00,
2013-09-10 01:59:00,67.5,66.0,29.04,South,180,2.0,4.0,96,0.00,,,0.00,Rainwise IP-100,2013-09-10 05:59:00,
2013-09-10 02:04:00,67.6,66.0,29.04,South,180,2.0,3.0,96,0.00,,,0.00,Rainwise IP-100,2013-09-10 06:04:00,
2013-09-10 02:09:00,67.6,66.0,29.04,South,180,1.0,3.0,95,0.00,,,0.00,Rainwise IP-100,2013-09-10 06:09:00,
2013-09-10 02:14:00,67.6,66.0,29.03,South,180,3.0,4.0,95,0.00,,,0.00,Rainwise IP-100,2013-09-10 06:14:00,
2013-09-10 02:19:00,67.7,66.0,29.03,SSW,202,2.0,5.0,95,0.00,,,0.00,Rainwise IP-100,2013-09-10 06:19:00,
2013-09-10 02:25:00,67.7,66.0,29.03,South,180,2.0,5.0,95,0.00,,,0.00,Rainwise IP-100,2013-09-10 06:25:00,
2013-09-10 02:30:00,67.7,66.0,29.03,South,180,1.0,4.0,95,0.00,,,0.00,Rainwise IP-100,2013-09-10 06:30:00,
2013-09-10 02:35:00,67.7,66.0,29.03,SSW,202,1.0,4.0,95,0.00,,,0.00,Rainwise IP-100,2013-09-10 06:35:00,
2013-09-10 02:40:00,67.6,66.0,29.02,South,180,4.0,4.0,96,0.00,,,0.00,Rainwise IP-100,2013-09-10 06:40:00,
2013-09-10 02:45:00,67.6,66.0,29.02,South,180,2.0,6.0,96,0.00,,,0.00,Rainwise IP-100,2013-09-10 06:45:00,
2013-09-10 02:50:00,67.6,66.0,29.02,South,180,5.0,5.0,96,0.00,,,0.00,Rainwise IP-100,2013-09-10 06:50:00,
2013-09-10 02:55:00,67.6,66.0,29.02,South,180,1.0,6.0,96,0.00,,,0.00,Rainwise IP-100,2013-09-10 06:55:00,
2013-09-10 03:00:00,67.7,66.0,29.01,South,180,4.0,8.0,96,0.00,,,0.00,Rainwise IP-100,2013-09-10 07:00:00,
2013-09-10 03:05:00,67.9,66.0,29.01,South,180,7.0,8.0,96,0.00,,,0.00,Rainwise IP-100,2013-09-10 07:05:00,
2013-09-10 03:10:00,68.1,66.0,29.01,South,180,2.0,9.0,95,0.00,,,0.00,Rainwise IP-100,2013-09-10 07:10:00,
2013-09-10 03:15:00,68.3,66.0,29.02,South,180,7.0,9.0,95,0.00,,,0.00,Rainwise IP-100,2013-09-10 07:15:00,
2013-09-10 03:20:00,68.4,67.0,29.01,South,180,6.0,9.0,95,0.00,,,0.00,Rainwise IP-100,2013-09-10 07:20:00,
2013-09-10 03:26:00,68.6,66.0,29.01,SSW,202,7.0,11.0,94,0.00,,,0.00,Rainwise IP-100,2013-09-10 07:26:00,
2013-09-10 03:31:00,68.7,66.0,29.01,South,180,6.0,9.0,94,0.00,,,0.00,Rainwise IP-100,2013-09-10 07:31:00,
2013-09-10 03:36:00,68.9,67.0,29.01,South,180,6.0,11.0,94,0.00,,,0.00,Rainwise IP-100,2013-09-10 07:36:00,
2013-09-10 03:41:00,69.0,66.0,29.02,South,180,7.0,11.0,93,0.00,,,0.00,Rainwise IP-100,2013-09-10 07:41:00,
2013-09-10 03:46:00,69.2,67.0,29.02,SSW,202,9.0,9.0,93,0.00,,,0.00,Rainwise IP-100,2013-09-10 07:46:00,
2013-09-10 03:51:00,69.5,67.0,29.02,South,180,4.0,10.0,93,0.00,,,0.00,Rainwise IP-100,2013-09-10 07:51:00,
2013-09-10 03:56:00,69.7,67.0,29.02,South,180,7.0,11.0,92,0.00,,,0.00,Rainwise IP-100,2013-09-10 07:56:00,
2013-09-10 04:01:00,69.9,67.0,29.02,SW,225,5.0,11.0,92,0.00,,,0.00,Rainwise IP-100,2013-09-10 08:01:00,
2013-09-10 04:06:00,70.0,67.0,29.01,South,180,6.0,9.0,92,0.00,,,0.00,Rainwise IP-100,2013-09-10 08:06:00,
2013-09-10 04:11:00,70.3,67.0,29.02,South,180,10.0,11.0,91,0.00,,,0.00,Rainwise IP-100,2013-09-10 08:11:00,
2013-09-10 04:16:00,70.6,67.0,29.02,South,180,4.0,12.0,90,0.00,,,0.00,Rainwise IP-100,2013-09-10 08:16:00,
2013-09-10 04:21:00,70.6,67.0,29.02,South,180,6.0,10.0,91,0.00,,,0.00,Rainwise IP-100,2013-09-10 08:21:00,
2013-09-10 04:27:00,70.9,67.0,29.01,SSW,202,5.0,14.0,90,0.00,,,0.00,Rainwise IP-100,2013-09-10 08:27:00,
2013-09-10 04:32:00,71.1,67.0,29.02,South,180,7.0,14.0,90,0.00,,,0.00,Rainwise IP-100,2013-09-10 08:32:00,
2013-09-10 04:37:00,71.4,68.0,29.02,South,180,10.0,17.0,89,0.00,,,0.00,Rainwise IP-100,2013-09-10 08:37:00,
2013-09-10 04:42:00,71.7,68.0,29.01,South,180,9.0,14.0,88,0.00,,,0.00,Rainwise IP-100,2013-09-10 08:42:00,
2013-09-10 04:47:00,71.8,68.0,29.01,South,180,6.0,21.0,88,0.00,,,0.00,Rainwise IP-100,2013-09-10 08:47:00,
2013-09-10 04:52:00,72.1,68.0,29.01,SW,225,7.0,14.0,87,0.00,,,0.00,Rainwise IP-100,2013-09-10 08:52:00,
2013-09-10 04:57:00,72.5,68.0,29.02,SW,225,4.0,16.0,87,0.00,,,0.00,Rainwise IP-100,2013-09-10 08:57:00,
2013-09-10 05:02:00,72.6,68.0,29.02,SSW,202,8.0,14.0,87,0.00,,,0.00,Rainwise IP-100,2013-09-10 09:02:00,
2013-09-10 05:07:00,72.8,68.0,29.02,SW,225,10.0,15.0,86,0.00,,,0.00,Rainwise IP-100,2013-09-10 09:07:00,
2013-09-10 05:12:00,73.3,69.0,29.01,SW,225,6.0,21.0,85,0.00,,,0.00,Rainwise IP-100,2013-09-10 09:12:00,
2013-09-10 05:17:00,73.6,69.0,29.03,SW,225,14.0,17.0,86,0.00,,,0.00,Rainwise IP-100,2013-09-10 09:17:00,
2013-09-10 05:22:00,73.3,69.0,29.03,WSW,247,8.0,19.0,88,0.00,,,0.00,Rainwise IP-100,2013-09-10 09:22:00,
2013-09-10 05:28:00,72.8,69.0,29.02,SW,225,17.0,18.0,90,0.06,,,0.01,Rainwise IP-100,2013-09-10 09:28:00,
2013-09-10 05:33:00,72.9,69.0,29.02,SW,225,11.0,17.0,89,0.06,,,0.01,Rainwise IP-100,2013-09-10 09:33:00,
2013-09-10 05:38:00,72.6,70.0,29.02,SSW,202,4.0,20.0,92,0.00,,,0.01,Rainwise IP-100,2013-09-10 09:38:00,
2013-09-10 05:43:00,72.2,70.0,29.02,SSW,202,12.0,19.0,94,0.06,,,0.02,Rainwise IP-100,2013-09-10 09:43:00,
2013-09-10 05:48:00,71.9,71.0,29.02,SW,225,19.0,19.0,96,0.36,,,0.07,Rainwise IP-100,2013-09-10 09:48:00,
2013-09-10 05:53:00,71.0,70.0,29.05,SSW,202,10.0,27.0,99,2.10,,,0.38,Rainwise IP-100,2013-09-10 09:53:00,
2013-09-10 05:58:00,70.7,70.0,29.01,SSW,202,4.0,14.0,99,1.86,,,0.38,Rainwise IP-100,2013-09-10 09:58:00,
2013-09-10 06:03:00,70.9,70.0,29.01,South,180,7.0,19.0,99,0.12,,,0.39,Rainwise IP-100,2013-09-10 10:03:00,
2013-09-10 06:08:00,70.9,70.0,29.00,SSW,202,8.0,17.0,99,0.06,,,0.39,Rainwise IP-100,2013-09-10 10:08:00,
2013-09-10 06:13:00,71.3,71.0,29.00,SW,225,7.0,19.0,99,0.00,,,0.39,Rainwise IP-100,2013-09-10 10:13:00,
2013-09-10 06:18:00,71.3,71.0,28.99,South,180,10.0,16.0,99,0.00,,,0.39,Rainwise IP-100,2013-09-10 10:18:00,
2013-09-10 06:23:00,71.3,71.0,28.99,South,180,11.0,15.0,99,0.00,,,0.39,Rainwise IP-100,2013-09-10 10:23:00,
2013-09-10 06:29:00,71.3,71.0,29.00,South,180,7.0,14.0,99,0.00,,,0.39,Rainwise IP-100,2013-09-10 10:29:00,
2013-09-10 06:34:00,71.2,71.0,29.01,South,180,7.0,13.0,99,0.00,,,0.39,Rainwise IP-100,2013-09-10 10:34:00,
2013-09-10 06:39:00,71.2,71.0,29.01,South,180,11.0,14.0,99,0.00,,,0.39,Rainwise IP-100,2013-09-10 10:39:00,
2013-09-10 06:44:00,71.3,71.0,29.01,South,180,12.0,14.0,99,0.00,,,0.39,Rainwise IP-100,2013-09-10 10:44:00,
2013-09-10 06:49:00,71.3,71.0,29.01,South,180,11.0,17.0,99,0.00,,,0.39,Rainwise IP-100,2013-09-10 10:49:00,
2013-09-10 06:54:00,71.3,71.0,29.01,SSW,202,9.0,13.0,99,0.00,,,0.39,Rainwise IP-100,2013-09-10 10:54:00,
2013-09-10 06:59:00,71.4,71.0,29.01,SSW,202,11.0,17.0,99,0.00,,,0.39,Rainwise IP-100,2013-09-10 10:59:00,
2013-09-10 07:04:00,71.5,71.0,29.00,SSW,202,7.0,17.0,99,0.00,,,0.39,Rainwise IP-100,2013-09-10 11:04:00,
2013-09-10 07:09:00,71.7,71.0,29.00,South,180,12.0,19.0,98,0.00,,,0.39,Rainwise IP-100,2013-09-10 11:09:00,
2013-09-10 07:14:00,71.9,71.0,29.00,SW,225,14.0,16.0,97,0.00,,,0.39,Rainwise IP-100,2013-09-10 11:14:00,
2013-09-10 07:19:00,71.9,71.0,29.00,SW,225,7.0,16.0,97,0.00,,,0.39,Rainwise IP-100,2013-09-10 11:19:00,
2013-09-10 07:24:00,72.2,71.0,29.01,South,180,12.0,16.0,96,0.00,,,0.39,Rainwise IP-100,2013-09-10 11:24:00,
2013-09-10 07:30:00,72.4,71.0,29.01,SSW,202,8.0,17.0,96,0.00,,,0.39,Rainwise IP-100,2013-09-10 11:30:00,
2013-09-10 07:35:00,72.7,71.0,29.01,South,180,6.0,17.0,96,0.00,,,0.39,Rainwise IP-100,2013-09-10 11:35:00,
2013-09-10 07:40:00,72.8,71.0,29.03,SW,225,9.0,17.0,95,0.00,,,0.39,Rainwise IP-100,2013-09-10 11:40:00,
2013-09-10 07:45:00,73.0,71.0,29.03,WSW,247,9.0,13.0,94,0.00,,,0.39,Rainwise IP-100,2013-09-10 11:45:00,
2013-09-10 07:50:00,73.4,71.0,29.04,SW,225,5.0,12.0,93,0.00,,,0.39,Rainwise IP-100,2013-09-10 11:50:00,
2013-09-10 07:55:00,73.6,71.0,29.04,SW,225,5.0,12.0,93,0.00,,,0.39,Rainwise IP-100,2013-09-10 11:55:00,
2013-09-10 08:00:00,73.6,71.0,29.05,WSW,247,7.0,11.0,93,0.00,,,0.39,Rainwise IP-100,2013-09-10 12:00:00,
2013-09-10 08:05:00,73.7,71.0,29.05,SW,225,8.0,10.0,92,0.00,,,0.39,Rainwise IP-100,2013-09-10 12:05:00,
2013-09-10 08:10:00,73.9,71.0,29.05,SW,225,2.0,10.0,92,0.00,,,0.39,Rainwise IP-100,2013-09-10 12:10:00,
2013-09-10 08:15:00,73.9,72.0,29.05,SSW,202,9.0,9.0,93,0.00,,,0.39,Rainwise IP-100,2013-09-10 12:15:00,
2013-09-10 08:20:00,74.2,72.0,29.05,SW,225,7.0,9.0,92,0.00,,,0.39,Rainwise IP-100,2013-09-10 12:20:00,
2013-09-10 08:25:00,74.4,71.0,29.05,SW,225,6.0,15.0,91,0.00,,,0.39,Rainwise IP-100,2013-09-10 12:25:00,
2013-09-10 08:31:00,74.5,72.0,29.06,SSW,202,7.0,11.0,91,0.00,,,0.39,Rainwise IP-100,2013-09-10 12:31:00,
2013-09-10 08:36:00,74.7,71.0,29.06,SW,225,9.0,12.0,90,0.00,,,0.39,Rainwise IP-100,2013-09-10 12:36:00,
2013-09-10 08:41:00,74.9,72.0,29.06,SSW,202,4.0,12.0,91,0.00,,,0.39,Rainwise IP-100,2013-09-10 12:41:00,
2013-09-10 08:46:00,75.2,71.0,29.06,SSW,202,8.0,12.0,89,0.00,,,0.39,Rainwise IP-100,2013-09-10 12:46:00,
2013-09-10 08:51:00,75.4,72.0,29.07,WSW,247,7.0,16.0,90,0.00,,,0.39,Rainwise IP-100,2013-09-10 12:51:00,
2013-09-10 08:56:00,75.7,71.0,29.07,SSW,202,6.0,14.0,88,0.00,,,0.39,Rainwise IP-100,2013-09-10 12:56:00,
2013-09-10 09:01:00,75.9,72.0,29.07,SW,225,7.0,16.0,88,0.00,,,0.39,Rainwise IP-100,2013-09-10 13:01:00,
2013-09-10 09:06:00,76.1,71.0,29.07,SSW,202,6.0,17.0,87,0.00,,,0.39,Rainwise IP-100,2013-09-10 13:06:00,
2013-09-10 09:11:00,76.3,72.0,29.08,SSW,202,8.0,16.0,87,0.00,,,0.39,Rainwise IP-100,2013-09-10 13:11:00,
2013-09-10 09:16:00,76.5,72.0,29.07,SW,225,7.0,14.0,87,0.00,,,0.39,Rainwise IP-100,2013-09-10 13:16:00,
2013-09-10 09:21:00,76.8,72.0,29.08,SW,225,7.0,19.0,87,0.00,,,0.39,Rainwise IP-100,2013-09-10 13:21:00,
2013-09-10 09:26:00,76.9,72.0,29.08,SW,225,6.0,15.0,86,0.00,,,0.39,Rainwise IP-100,2013-09-10 13:26:00,
2013-09-10 09:32:00,77.3,72.0,29.08,SSW,202,6.0,16.0,85,0.00,,,0.39,Rainwise IP-100,2013-09-10 13:32:00,
2013-09-10 09:37:00,77.5,73.0,29.08,SW,225,11.0,18.0,85,0.00,,,0.39,Rainwise IP-100,2013-09-10 13:37:00,
2013-09-10 09:42:00,77.8,73.0,29.08,South,180,6.0,17.0,86,0.00,,,0.39,Rainwise IP-100,2013-09-10 13:42:00,
2013-09-10 09:47:00,78.2,73.0,29.09,SSW,202,14.0,17.0,84,0.00,,,0.39,Rainwise IP-100,2013-09-10 13:47:00,
2013-09-10 09:52:00,78.4,72.0,29.09,SSW,202,11.0,19.0,83,0.00,,,0.39,Rainwise IP-100,2013-09-10 13:52:00,
2013-09-10 09:57:00,78.5,73.0,29.10,SW,225,10.0,16.0,85,0.00,,,0.39,Rainwise IP-100,2013-09-10 13:57:00,
2013-09-10 10:02:00,78.7,73.0,29.10,SW,225,8.0,21.0,83,0.00,,,0.39,Rainwise IP-100,2013-09-10 14:02:00,
2013-09-10 10:07:00,79.0,73.0,29.10,SW,225,10.0,20.0,84,0.00,,,0.39,Rainwise IP-100,2013-09-10 14:07:00,
2013-09-10 10:12:00,79.3,73.0,29.11,SW,225,14.0,19.0,82,0.00,,,0.39,Rainwise IP-100,2013-09-10 14:12:00,
2013-09-10 10:17:00,79.5,73.0,29.12,SW,225,9.0,19.0,80,0.00,,,0.39,Rainwise IP-100,2013-09-10 14:17:00,
2013-09-10 10:22:00,79.6,73.0,29.12,WSW,247,10.0,19.0,81,0.00,,,0.39,Rainwise IP-100,2013-09-10 14:22:00,
2013-09-10 10:27:00,79.5,73.0,29.12,SW,225,17.0,20.0,81,0.00,,,0.39,Rainwise IP-100,2013-09-10 14:27:00,
2013-09-10 10:33:00,79.5,73.0,29.12,SW,225,12.0,24.0,80,0.00,,,0.39,Rainwise IP-100,2013-09-10 14:33:00,
2013-09-10 10:38:00,79.7,73.0,29.12,SW,225,16.0,27.0,81,0.00,,,0.39,Rainwise IP-100,2013-09-10 14:38:00,
2013-09-10 10:43:00,79.8,73.0,29.11,SW,225,8.0,22.0,81,0.00,,,0.39,Rainwise IP-100,2013-09-10 14:43:00,
2013-09-10 10:48:00,79.9,72.0,29.11,WSW,247,18.0,24.0,79,0.00,,,0.39,Rainwise IP-100,2013-09-10 14:48:00,
2013-09-10 10:53:00,80.1,73.0,29.12,WSW,247,11.0,21.0,81,0.00,,,0.39,Rainwise IP-100,2013-09-10 14:53:00,
2013-09-10 10:58:00,80.4,73.0,29.11,SSW,202,12.0,21.0,79,0.00,,,0.39,Rainwise IP-100,2013-09-10 14:58:00,
2013-09-10 11:04:00,80.6,73.0,29.12,SW,225,12.0,21.0,79,0.00,,,0.39,Rainwise IP-100,2013-09-10 15:04:00,
2013-09-10 11:09:00,80.8,73.0,29.12,WSW,247,11.0,19.0,78,0.00,,,0.39,Rainwise IP-100,2013-09-10 15:09:00,
2013-09-10 11:14:00,80.8,73.0,29.12,SW,225,14.0,22.0,78,0.00,,,0.39,Rainwise IP-100,2013-09-10 15:14:00,
2013-09-10 11:19:00,81.0,74.0,29.12,SW,225,8.0,20.0,79,0.00,,,0.39,Rainwise IP-100,2013-09-10 15:19:00,
2013-09-10 11:25:00,81.1,73.0,29.12,SW,225,11.0,19.0,78,0.00,,,0.39,Rainwise IP-100,2013-09-10 15:25:00,
2013-09-10 11:31:00,81.3,74.0,29.12,SW,225,10.0,21.0,79,0.00,,,0.39,Rainwise IP-100,2013-09-10 15:31:00,
2013-09-10 11:36:00,81.4,73.0,29.12,SW,225,11.0,19.0,77,0.00,,,0.39,Rainwise IP-100,2013-09-10 15:36:00,
2013-09-10 11:41:00,81.5,74.0,29.12,SSW,202,9.0,21.0,78,0.00,,,0.39,Rainwise IP-100,2013-09-10 15:41:00,
2013-09-10 11:46:00,81.3,73.0,29.11,WSW,247,4.0,20.0,77,0.00,,,0.39,Rainwise IP-100,2013-09-10 15:46:00,
2013-09-10 11:51:00,81.5,74.0,29.11,SSW,202,11.0,21.0,78,0.00,,,0.39,Rainwise IP-100,2013-09-10 15:51:00,
2013-09-10 11:56:00,81.4,73.0,29.12,SW,225,9.0,24.0,77,0.00,,,0.39,Rainwise IP-100,2013-09-10 15:56:00,
2013-09-10 12:01:00,81.7,73.0,29.11,WSW,247,4.0,22.0,76,0.00,,,0.39,Rainwise IP-100,2013-09-10 16:01:00,
2013-09-10 12:07:00,81.7,73.0,29.12,SW,225,12.0,21.0,77,0.00,,,0.39,Rainwise IP-100,2013-09-10 16:07:00,
2013-09-10 12:13:00,81.9,74.0,29.11,WSW,247,12.0,25.0,77,0.00,,,0.39,Rainwise IP-100,2013-09-10 16:13:00,
2013-09-10 12:18:00,82.1,73.0,29.12,SSW,202,9.0,21.0,76,0.00,,,0.39,Rainwise IP-100,2013-09-10 16:18:00,
2013-09-10 12:23:00,82.4,73.0,29.11,SW,225,6.0,21.0,74,0.00,,,0.39,Rainwise IP-100,2013-09-10 16:23:00,
2013-09-10 12:28:00,82.4,74.0,29.12,SW,225,8.0,17.0,77,0.00,,,0.39,Rainwise IP-100,2013-09-10 16:28:00,
2013-09-10 12:34:00,82.4,74.0,29.12,SSW,202,10.0,19.0,76,0.00,,,0.39,Rainwise IP-100,2013-09-10 16:34:00,
2013-09-10 12:39:00,82.4,73.0,29.11,SW,225,14.0,20.0,75,0.00,,,0.39,Rainwise IP-100,2013-09-10 16:39:00,
2013-09-10 12:44:00,82.6,73.0,29.11,SW,225,11.0,19.0,74,0.00,,,0.39,Rainwise IP-100,2013-09-10 16:44:00,
2013-09-10 12:49:00,82.6,73.0,29.12,SW,225,14.0,26.0,74,0.00,,,0.39,Rainwise IP-100,2013-09-10 16:49:00,
2013-09-10 12:54:00,82.5,73.0,29.12,SSW,202,19.0,20.0,75,0.00,,,0.39,Rainwise IP-100,2013-09-10 16:54:00,
2013-09-10 12:59:00,82.6,73.0,29.12,South,180,15.0,26.0,75,0.00,,,0.39,Rainwise IP-100,2013-09-10 16:59:00,
2013-09-10 13:05:00,82.6,73.0,29.12,South,180,18.0,26.0,74,0.00,,,0.39,Rainwise IP-100,2013-09-10 17:05:00,
2013-09-10 13:10:00,82.6,73.0,29.12,SW,225,8.0,26.0,74,0.00,,,0.39,Rainwise IP-100,2013-09-10 17:10:00,
2013-09-10 13:15:00,82.9,74.0,29.13,SW,225,5.0,21.0,75,0.00,,,0.39,Rainwise IP-100,2013-09-10 17:15:00,
2013-09-10 13:20:00,83.0,73.0,29.13,WSW,247,18.0,26.0,72,0.00,,,0.39,Rainwise IP-100,2013-09-10 17:20:00,
2013-09-10 13:25:00,82.8,73.0,29.13,SSW,202,14.0,23.0,74,0.00,,,0.39,Rainwise IP-100,2013-09-10 17:25:00,
2013-09-10 13:30:00,82.7,73.0,29.13,WSW,247,14.0,24.0,73,0.00,,,0.39,Rainwise IP-100,2013-09-10 17:30:00,
2013-09-10 13:36:00,82.8,73.0,29.13,SSW,202,9.0,24.0,73,0.00,,,0.39,Rainwise IP-100,2013-09-10 17:36:00,
2013-09-10 13:41:00,82.9,73.0,29.13,SW,225,8.0,27.0,74,0.00,,,0.39,Rainwise IP-100,2013-09-10 17:41:00,
2013-09-10 13:46:00,83.1,73.0,29.12,SW,225,6.0,24.0,73,0.00,,,0.39,Rainwise IP-100,2013-09-10 17:46:00,
2013-09-10 13:51:00,82.9,73.0,29.13,SW,225,6.0,16.0,73,0.00,,,0.39,Rainwise IP-100,2013-09-10 17:51:00,
2013-09-10 13:56:00,83.2,74.0,29.13,SSW,202,9.0,19.0,74,0.00,,,0.39,Rainwise IP-100,2013-09-10 17:56:00,
2013-09-10 14:02:00,83.2,74.0,29.13,SSW,202,14.0,20.0,74,0.00,,,0.39,Rainwise IP-100,2013-09-10 18:02:00,
2013-09-10 14:07:00,83.1,73.0,29.13,SW,225,24.0,25.0,72,0.00,,,0.39,Rainwise IP-100,2013-09-10 18:07:00,
2013-09-10 14:12:00,83.1,73.0,29.13,SW,225,19.0,26.0,72,0.00,,,0.39,Rainwise IP-100,2013-09-10 18:12:00,
2013-09-10 14:17:00,83.2,73.0,29.12,SW,225,7.0,24.0,73,0.00,,,0.39,Rainwise IP-100,2013-09-10 18:17:00,
2013-09-10 14:22:00,83.4,73.0,29.12,SSW,202,10.0,26.0,72,0.00,,,0.39,Rainwise IP-100,2013-09-10 18:22:00,
2013-09-10 14:27:00,83.6,73.0,29.12,SSW,202,11.0,26.0,71,0.00,,,0.39,Rainwise IP-100,2013-09-10 18:27:00,
2013-09-10 14:33:00,83.4,73.0,29.12,SW,225,14.0,24.0,71,0.00,,,0.39,Rainwise IP-100,2013-09-10 18:33:00,
2013-09-10 14:38:00,83.6,72.0,29.12,SW,225,11.0,26.0,70,0.00,,,0.39,Rainwise IP-100,2013-09-10 18:38:00,
2013-09-10 14:43:00,83.9,73.0,29.12,SSW,202,12.0,24.0,70,0.00,,,0.39,Rainwise IP-100,2013-09-10 18:43:00,
2013-09-10 14:49:00,83.5,72.0,29.11,SW,225,11.0,29.0,70,0.00,,,0.39,Rainwise IP-100,2013-09-10 18:49:00,
2013-09-10 14:54:00,83.6,72.0,29.12,SSW,202,19.0,26.0,68,0.00,,,0.39,Rainwise IP-100,2013-09-10 18:54:00,
2013-09-10 14:59:00,83.7,72.0,29.12,SW,225,13.0,25.0,68,0.00,,,0.39,Rainwise IP-100,2013-09-10 18:59:00,
2013-09-10 15:04:00,83.8,72.0,29.12,SW,225,17.0,23.0,68,0.00,,,0.39,Rainwise IP-100,2013-09-10 19:04:00,
2013-09-10 15:09:00,83.8,72.0,29.12,WSW,247,14.0,24.0,68,0.00,,,0.39,Rainwise IP-100,2013-09-10 19:09:00,
2013-09-10 15:14:00,83.9,71.0,29.12,SW,225,19.0,26.0,66,0.00,,,0.39,Rainwise IP-100,2013-09-10 19:14:00,
2013-09-10 15:19:00,83.9,72.0,29.13,SW,225,8.0,25.0,67,0.00,,,0.39,Rainwise IP-100,2013-09-10 19:19:00,
2013-09-10 15:24:00,84.2,72.0,29.12,WSW,247,22.0,23.0,67,0.00,,,0.39,Rainwise IP-100,2013-09-10 19:24:00,
2013-09-10 15:29:00,84.3,72.0,29.12,SSW,202,9.0,27.0,67,0.00,,,0.39,Rainwise IP-100,2013-09-10 19:29:00,
2013-09-10 15:35:00,84.5,73.0,29.12,SW,225,20.0,23.0,68,0.00,,,0.39,Rainwise IP-100,2013-09-10 19:35:00,
2013-09-10 15:40:00,84.5,72.0,29.12,SSW,202,14.0,30.0,67,0.00,,,0.39,Rainwise IP-100,2013-09-10 19:40:00,
2013-09-10 15:45:00,84.6,72.0,29.13,SW,225,9.0,19.0,66,0.00,,,0.39,Rainwise IP-100,2013-09-10 19:45:00,
2013-09-10 15:50:00,84.8,72.0,29.12,SW,225,6.0,24.0,66,0.00,,,0.39,Rainwise IP-100,2013-09-10 19:50:00,
2013-09-10 15:55:00,84.9,72.0,29.12,WSW,247,12.0,21.0,67,0.00,,,0.39,Rainwise IP-100,2013-09-10 19:55:00,
2013-09-10 16:00:00,85.2,71.0,29.13,SW,225,14.0,22.0,64,0.00,,,0.39,Rainwise IP-100,2013-09-10 20:00:00,
2013-09-10 16:05:00,85.5,72.0,29.13,SW,225,12.0,21.0,66,0.00,,,0.39,Rainwise IP-100,2013-09-10 20:05:00,
2013-09-10 16:10:00,85.3,71.0,29.13,WSW,247,14.0,24.0,64,0.00,,,0.39,Rainwise IP-100,2013-09-10 20:10:00,
2013-09-10 16:15:00,85.4,72.0,29.13,SW,225,12.0,22.0,64,0.00,,,0.39,Rainwise IP-100,2013-09-10 20:15:00,
2013-09-10 16:20:00,85.4,72.0,29.13,WSW,247,16.0,23.0,65,0.00,,,0.39,Rainwise IP-100,2013-09-10 20:20:00,
2013-09-10 16:25:00,85.4,72.0,29.13,SW,225,11.0,19.0,64,0.00,,,0.39,Rainwise IP-100,2013-09-10 20:25:00,
2013-09-10 16:30:00,85.5,72.0,29.13,SW,225,9.0,19.0,64,0.00,,,0.39,Rainwise IP-100,2013-09-10 20:30:00,
2013-09-10 16:36:00,85.6,72.0,29.13,SW,225,11.0,16.0,66,0.00,,,0.39,Rainwise IP-100,2013-09-10 20:36:00,
2013-09-10 16:41:00,85.8,72.0,29.13,SW,225,7.0,16.0,64,0.00,,,0.39,Rainwise IP-100,2013-09-10 20:41:00,
2013-09-10 16:46:00,85.7,72.0,29.13,WSW,247,9.0,15.0,65,0.00,,,0.39,Rainwise IP-100,2013-09-10 20:46:00,
2013-09-10 16:51:00,85.8,71.0,29.13,WSW,247,14.0,17.0,63,0.00,,,0.39,Rainwise IP-100,2013-09-10 20:51:00,
2013-09-10 16:56:00,85.6,72.0,29.14,SW,225,6.0,18.0,64,0.00,,,0.39,Rainwise IP-100,2013-09-10 20:56:00,
2013-09-10 17:01:00,85.5,72.0,29.14,SW,225,11.0,19.0,64,0.00,,,0.39,Rainwise IP-100,2013-09-10 21:01:00,
2013-09-10 17:06:00,85.5,72.0,29.13,WSW,247,7.0,18.0,65,0.00,,,0.39,Rainwise IP-100,2013-09-10 21:06:00,
2013-09-10 17:11:00,85.6,72.0,29.13,WSW,247,7.0,17.0,64,0.00,,,0.39,Rainwise IP-100,2013-09-10 21:11:00,
2013-09-10 17:17:00,85.5,72.0,29.13,SSW,202,5.0,18.0,65,0.00,,,0.39,Rainwise IP-100,2013-09-10 21:17:00,
2013-09-10 17:22:00,85.3,72.0,29.13,SSW,202,19.0,19.0,65,0.00,,,0.39,Rainwise IP-100,2013-09-10 21:22:00,
2013-09-10 17:27:00,85.3,72.0,29.13,SW,225,5.0,22.0,65,0.00,,,0.39,Rainwise IP-100,2013-09-10 21:27:00,
2013-09-10 17:32:00,85.2,72.0,29.13,South,180,8.0,11.0,66,0.00,,,0.39,Rainwise IP-100,2013-09-10 21:32:00,
2013-09-10 17:38:00,85.2,73.0,29.14,SW,225,7.0,14.0,67,0.00,,,0.39,Rainwise IP-100,2013-09-10 21:38:00,
2013-09-10 17:43:00,85.2,72.0,29.13,SW,225,9.0,16.0,66,0.00,,,0.39,Rainwise IP-100,2013-09-10 21:43:00,
2013-09-10 17:48:00,85.1,72.0,29.13,SW,225,11.0,16.0,67,0.00,,,0.39,Rainwise IP-100,2013-09-10 21:48:00,
2013-09-10 17:53:00,84.9,72.0,29.13,SW,225,5.0,12.0,67,0.00,,,0.39,Rainwise IP-100,2013-09-10 21:53:00,
2013-09-10 17:58:00,84.8,72.0,29.13,South,180,7.0,13.0,67,0.00,,,0.39,Rainwise IP-100,2013-09-10 21:58:00,
2013-09-10 18:03:00,84.4,72.0,29.14,SW,225,7.0,15.0,68,0.00,,,0.39,Rainwise IP-100,2013-09-10 22:03:00,
2013-09-10 18:08:00,84.3,72.0,29.13,WSW,247,10.0,15.0,68,0.00,,,0.39,Rainwise IP-100,2013-09-10 22:08:00,
2013-09-10 18:13:00,84.1,72.0,29.13,SW,225,7.0,14.0,68,0.00,,,0.39,Rainwise IP-100,2013-09-10 22:13:00,
2013-09-10 18:18:00,83.9,72.0,29.13,SW,225,7.0,14.0,68,0.00,,,0.39,Rainwise IP-100,2013-09-10 22:18:00,
2013-09-10 18:23:00,83.6,72.0,29.13,WSW,247,7.0,17.0,68,0.00,,,0.39,Rainwise IP-100,2013-09-10 22:23:00,
2013-09-10 18:28:00,83.5,72.0,29.13,SW,225,6.0,12.0,69,0.00,,,0.39,Rainwise IP-100,2013-09-10 22:28:00,
2013-09-10 18:34:00,83.2,72.0,29.13,SW,225,4.0,14.0,69,0.00,,,0.39,Rainwise IP-100,2013-09-10 22:34:00,
2013-09-10 18:40:00,83.1,72.0,29.13,West,270,7.0,16.0,69,0.00,,,0.39,Rainwise IP-100,2013-09-10 22:40:00,
2013-09-10 18:45:00,82.9,72.0,29.13,South,180,5.0,14.0,70,0.00,,,0.39,Rainwise IP-100,2013-09-10 22:45:00,
2013-09-10 18:50:00,82.8,72.0,29.13,WSW,247,6.0,11.0,70,0.00,,,0.39,Rainwise IP-100,2013-09-10 22:50:00,
2013-09-10 18:55:00,82.5,71.0,29.13,SW,225,3.0,12.0,70,0.00,,,0.39,Rainwise IP-100,2013-09-10 22:55:00,
2013-09-10 19:00:00,82.4,71.0,29.13,SW,225,7.0,11.0,70,0.00,,,0.39,Rainwise IP-100,2013-09-10 23:00:00,
2013-09-10 19:05:00,82.1,71.0,29.13,SW,225,10.0,11.0,71,0.00,,,0.39,Rainwise IP-100,2013-09-10 23:05:00,
2013-09-10 19:10:00,82.1,71.0,29.12,SW,225,5.0,12.0,70,0.00,,,0.39,Rainwise IP-100,2013-09-10 23:10:00,
2013-09-10 19:15:00,81.8,71.0,29.12,SSW,202,7.0,15.0,71,0.00,,,0.39,Rainwise IP-100,2013-09-10 23:15:00,
2013-09-10 19:20:00,81.5,71.0,29.12,SW,225,4.0,11.0,71,0.00,,,0.39,Rainwise IP-100,2013-09-10 23:20:00,
2013-09-10 19:25:00,81.3,71.0,29.12,SW,225,10.0,11.0,71,0.00,,,0.39,Rainwise IP-100,2013-09-10 23:25:00,
2013-09-10 19:30:00,81.1,71.0,29.11,SSW,202,7.0,13.0,71,0.00,,,0.39,Rainwise IP-100,2013-09-10 23:30:00,
2013-09-10 19:35:00,80.9,70.0,29.11,SW,225,9.0,13.0,70,0.00,,,0.39,Rainwise IP-100,2013-09-10 23:35:00,
2013-09-10 19:41:00,80.8,71.0,29.11,SSW,202,4.0,12.0,72,0.00,,,0.39,Rainwise IP-100,2013-09-10 23:41:00,
2013-09-10 19:46:00,80.3,70.0,29.11,SSW,202,5.0,11.0,72,0.00,,,0.39,Rainwise IP-100,2013-09-10 23:46:00,
2013-09-10 19:51:00,79.9,70.0,29.11,SSW,202,6.0,7.0,72,0.00,,,0.39,Rainwise IP-100,2013-09-10 23:51:00,
2013-09-10 19:56:00,79.6,69.0,29.11,SW,225,6.0,9.0,72,0.00,,,0.39,Rainwise IP-100,2013-09-10 23:56:00,
2013-09-10 20:02:00,79.4,69.0,29.11,SW,225,4.0,13.0,72,0.00,,,0.39,Rainwise IP-100,2013-09-11 00:02:00,
2013-09-10 20:07:00,79.5,69.0,29.11,WSW,247,6.0,12.0,72,0.00,,,0.39,Rainwise IP-100,2013-09-11 00:07:00,
2013-09-10 20:12:00,79.3,70.0,29.11,South,180,10.0,12.0,73,0.00,,,0.39,Rainwise IP-100,2013-09-11 00:12:00,
2013-09-10 20:17:00,79.3,70.0,29.12,South,180,8.0,12.0,73,0.00,,,0.39,Rainwise IP-100,2013-09-11 00:17:00,
2013-09-10 20:22:00,79.3,70.0,29.12,South,180,6.0,11.0,73,0.00,,,0.39,Rainwise IP-100,2013-09-11 00:22:00,
2013-09-10 20:27:00,79.2,70.0,29.12,SSE,157,8.0,12.0,73,0.00,,,0.39,Rainwise IP-100,2013-09-11 00:27:00,
2013-09-10 20:32:00,79.2,70.0,29.12,SW,225,7.0,14.0,74,0.00,,,0.39,Rainwise IP-100,2013-09-11 00:32:00,
2013-09-10 20:37:00,79.1,70.0,29.12,SW,225,4.0,12.0,74,0.00,,,0.39,Rainwise IP-100,2013-09-11 00:37:00,
2013-09-10 20:43:00,78.8,70.0,29.12,SSW,202,5.0,14.0,75,0.00,,,0.39,Rainwise IP-100,2013-09-11 00:43:00,
2013-09-10 20:48:00,78.4,70.0,29.12,SSW,202,6.0,11.0,76,0.00,,,0.39,Rainwise IP-100,2013-09-11 00:48:00,
2013-09-10 20:53:00,78.1,71.0,29.12,SSW,202,5.0,11.0,78,0.00,,,0.39,Rainwise IP-100,2013-09-11 00:53:00,
2013-09-10 20:58:00,77.8,70.0,29.13,SSW,202,7.0,12.0,78,0.00,,,0.39,Rainwise IP-100,2013-09-11 00:58:00,
2013-09-10 21:03:00,77.8,70.0,29.12,SW,225,9.0,12.0,78,0.00,,,0.39,Rainwise IP-100,2013-09-11 01:03:00,
2013-09-10 21:08:00,77.9,71.0,29.13,SW,225,7.0,15.0,78,0.00,,,0.39,Rainwise IP-100,2013-09-11 01:08:00,
2013-09-10 21:13:00,77.8,71.0,29.13,South,180,4.0,11.0,79,0.00,,,0.39,Rainwise IP-100,2013-09-11 01:13:00,
2013-09-10 21:18:00,77.9,71.0,29.13,SW,225,7.0,12.0,78,0.00,,,0.39,Rainwise IP-100,2013-09-11 01:18:00,
2013-09-10 21:23:00,77.9,71.0,29.13,SSW,202,8.0,12.0,78,0.00,,,0.39,Rainwise IP-100,2013-09-11 01:23:00,
2013-09-10 21:28:00,77.9,71.0,29.13,SW,225,6.0,14.0,78,0.00,,,0.39,Rainwise IP-100,2013-09-11 01:28:00,
2013-09-10 21:33:00,78.0,71.0,29.13,South,180,7.0,15.0,78,0.00,,,0.39,Rainwise IP-100,2013-09-11 01:33:00,
2013-09-10 21:38:00,78.0,71.0,29.14,SSW,202,9.0,13.0,78,0.00,,,0.39,Rainwise IP-100,2013-09-11 01:38:00,
2013-09-10 21:44:00,78.2,71.0,29.14,South,180,5.0,12.0,78,0.00,,,0.39,Rainwise IP-100,2013-09-11 01:44:00,
2013-09-10 21:49:00,78.2,71.0,29.14,SW,225,3.0,11.0,78,0.00,,,0.39,Rainwise IP-100,2013-09-11 01:49:00,
2013-09-10 21:54:00,78.2,71.0,29.14,SSW,202,8.0,14.0,78,0.00,,,0.39,Rainwise IP-100,2013-09-11 01:54:00,
2013-09-10 21:59:00,78.3,70.0,29.14,SSW,202,3.0,14.0,77,0.00,,,0.39,Rainwise IP-100,2013-09-11 01:59:00,
2013-09-10 22:04:00,78.3,71.0,29.14,SW,225,10.0,12.0,78,0.00,,,0.39,Rainwise IP-100,2013-09-11 02:04:00,
2013-09-10 22:09:00,78.4,70.0,29.14,WSW,247,7.0,11.0,77,0.00,,,0.39,Rainwise IP-100,2013-09-11 02:09:00,
2013-09-10 22:14:00,78.2,71.0,29.14,SSW,202,4.0,11.0,78,0.00,,,0.39,Rainwise IP-100,2013-09-11 02:14:00,
2013-09-10 22:19:00,78.1,71.0,29.14,SSW,202,7.0,12.0,78,0.00,,,0.39,Rainwise IP-100,2013-09-11 02:19:00,
2013-09-10 22:24:00,78.2,70.0,29.14,SW,225,11.0,14.0,77,0.00,,,0.39,Rainwise IP-100,2013-09-11 02:24:00,
2013-09-10 22:29:00,78.1,71.0,29.14,SSW,202,5.0,15.0,78,0.00,,,0.39,Rainwise IP-100,2013-09-11 02:29:00,
2013-09-10 22:34:00,78.2,70.0,29.14,SW,225,7.0,14.0,77,0.00,,,0.39,Rainwise IP-100,2013-09-11 02:34:00,
2013-09-10 22:39:00,78.3,70.0,29.14,SW,225,4.0,16.0,77,0.00,,,0.39,Rainwise IP-100,2013-09-11 02:39:00,
2013-09-10 22:45:00,78.2,70.0,29.14,SW,225,7.0,12.0,77,0.00,,,0.39,Rainwise IP-100,2013-09-11 02:45:00,
2013-09-10 22:50:00,78.1,70.0,29.14,SSW,202,4.0,11.0,77,0.00,,,0.39,Rainwise IP-100,2013-09-11 02:50:00,
2013-09-10 22:55:00,78.2,70.0,29.14,South,180,8.0,14.0,77,0.00,,,0.39,Rainwise IP-100,2013-09-11 02:55:00,
2013-09-10 23:00:00,78.2,70.0,29.14,WSW,247,12.0,12.0,77,0.00,,,0.39,Rainwise IP-100,2013-09-11 03:00:00,
2013-09-10 23:05:00,78.3,70.0,29.14,SSW,202,9.0,12.0,77,0.00,,,0.39,Rainwise IP-100,2013-09-11 03:05:00,
2013-09-10 23:10:00,78.2,70.0,29.14,SW,225,7.0,14.0,77,0.00,,,0.39,Rainwise IP-100,2013-09-11 03:10:00,
2013-09-10 23:15:00,78.2,70.0,29.14,SSW,202,8.0,12.0,77,0.00,,,0.39,Rainwise IP-100,2013-09-11 03:15:00,
2013-09-10 23:20:00,78.1,70.0,29.14,SW,225,7.0,12.0,77,0.00,,,0.39,Rainwise IP-100,2013-09-11 03:20:00,
2013-09-10 23:25:00,77.9,70.0,29.14,SW,225,9.0,12.0,77,0.00,,,0.39,Rainwise IP-100,2013-09-11 03:25:00,
2013-09-10 23:30:00,78.0,70.0,29.14,SSW,202,6.0,12.0,77,0.00,,,0.39,Rainwise IP-100,2013-09-11 03:30:00,
2013-09-10 23:35:00,78.0,70.0,29.14,WSW,247,11.0,12.0,77,0.00,,,0.39,Rainwise IP-100,2013-09-11 03:35:00,
2013-09-10 23:40:00,77.8,70.0,29.14,South,180,4.0,14.0,78,0.00,,,0.39,Rainwise IP-100,2013-09-11 03:40:00,
2013-09-10 23:46:00,77.6,71.0,29.14,SSW,202,7.0,13.0,79,0.00,,,0.39,Rainwise IP-100,2013-09-11 03:46:00,
2013-09-10 23:51:00,77.5,71.0,29.14,SSW,202,9.0,11.0,79,0.00,,,0.39,Rainwise IP-100,2013-09-11 03:51:00,
2013-09-10 23:56:00,77.3,70.0,29.14,SW,225,5.0,16.0,79,0.00,,,0.39,Rainwise IP-100,2013-09-11 03:56:00,